createdAt,value
2018-04-22T00:01:46.701Z,22.10
2018-04-22T00:04:15.347Z,22.10
2018-04-22T00:06:43.668Z,22.10
2018-04-22T00:09:12.124Z,22.00
2018-04-22T00:11:40.486Z,22.10
2018-04-22T00:14:08.824Z,22.10
2018-04-22T00:16:37.859Z,22.00
2018-04-22T00:19:06.215Z,22.00
2018-04-22T00:21:35.238Z,22.00
2018-04-22T00:24:03.510Z,22.00
2018-04-22T00:26:31.950Z,22.00
2018-04-22T00:29:00.972Z,22.00
2018-04-22T00:31:29.390Z,22.00
2018-04-22T00:33:57.666Z,22.00
2018-04-22T00:36:26.126Z,22.00
2018-04-22T00:38:54.517Z,22.00
2018-04-22T00:41:22.857Z,22.00
2018-04-22T00:43:52.194Z,22.00
2018-04-22T00:46:20.523Z,22.00
2018-04-22T00:48:48.951Z,22.00
2018-04-22T00:51:17.230Z,22.00
2018-04-22T00:53:57.355Z,22.00
2018-04-22T00:56:25.759Z,22.00
2018-04-22T00:58:54.178Z,22.00
2018-04-22T01:01:22.444Z,22.00
2018-04-22T01:03:51.602Z,22.00
2018-04-22T01:06:19.875Z,22.00
2018-04-22T01:08:48.208Z,22.00
2018-04-22T01:11:16.462Z,22.00
2018-04-22T01:13:44.980Z,22.00
2018-04-22T01:16:14.011Z,22.00
2018-04-22T01:18:42.340Z,22.00
2018-04-22T01:21:10.753Z,22.00
2018-04-22T01:23:39.014Z,22.00
2018-04-22T01:26:07.515Z,22.00
2018-04-22T01:28:35.933Z,22.00
2018-04-22T01:31:04.190Z,22.00
2018-04-22T01:33:32.628Z,22.00
2018-04-22T01:36:01.091Z,22.00
2018-04-22T01:38:29.445Z,22.00
2018-04-22T01:40:57.840Z,22.00
2018-04-22T01:43:26.143Z,22.00
2018-04-22T01:45:54.714Z,22.00
2018-04-22T01:48:22.979Z,22.00
2018-04-22T01:50:51.645Z,22.00
2018-04-22T01:53:19.984Z,22.00
2018-04-22T01:55:48.410Z,22.00
2018-04-22T01:58:16.686Z,22.00
2018-04-22T02:00:45.093Z,22.00
2018-04-22T02:03:13.779Z,21.90
2018-04-22T02:05:42.239Z,22.00
2018-04-22T02:08:10.634Z,21.90
2018-04-22T02:10:38.925Z,21.90
2018-04-22T02:13:07.966Z,21.90
2018-04-22T02:15:36.337Z,21.90
2018-04-22T02:18:04.754Z,22.00
2018-04-22T02:20:33.036Z,21.90
2018-04-22T02:23:01.297Z,21.90
2018-04-22T02:25:29.567Z,21.90
2018-04-22T02:27:57.909Z,21.90
2018-04-22T02:30:26.186Z,21.90
2018-04-22T02:32:54.474Z,21.90
2018-04-22T02:35:22.733Z,21.90
2018-04-22T02:37:51.035Z,21.90
2018-04-22T02:40:19.513Z,21.90
2018-04-22T02:42:47.870Z,21.90
2018-04-22T02:45:17.219Z,21.90
2018-04-22T02:47:45.493Z,21.90
2018-04-22T02:50:13.958Z,21.90
2018-04-22T02:52:42.303Z,21.90
2018-04-22T02:55:10.605Z,21.90
2018-04-22T02:57:38.882Z,21.90
2018-04-22T03:00:07.391Z,21.90
2018-04-22T03:02:35.787Z,21.90
2018-04-22T03:05:04.050Z,21.90
2018-04-22T03:07:32.322Z,21.90
2018-04-22T03:10:00.720Z,21.90
2018-04-22T03:12:29.001Z,21.90
2018-04-22T03:14:57.260Z,21.90
2018-04-22T03:17:25.532Z,21.90
2018-04-22T03:19:53.819Z,21.90
2018-04-22T03:22:22.091Z,21.90
2018-04-22T03:24:50.351Z,21.90
2018-04-22T03:27:18.689Z,21.90
2018-04-22T03:29:47.753Z,21.90
2018-04-22T03:32:16.101Z,21.80
2018-04-22T03:34:44.476Z,21.90
2018-04-22T03:37:12.741Z,21.90
2018-04-22T03:39:41.174Z,21.90
2018-04-22T03:42:09.626Z,21.80
2018-04-22T03:44:37.953Z,21.90
2018-04-22T03:47:06.979Z,21.90
2018-04-22T03:49:35.504Z,21.80
2018-04-22T03:52:03.765Z,21.80
2018-04-22T03:54:32.033Z,21.80
2018-04-22T03:57:00.306Z,21.80
2018-04-22T03:59:28.582Z,21.80
2018-04-22T04:01:56.881Z,21.80
2018-04-22T04:04:25.382Z,21.80
2018-04-22T04:06:53.661Z,21.80
2018-04-22T04:09:21.936Z,21.80
2018-04-22T04:11:50.206Z,21.80
2018-04-22T04:14:18.465Z,21.80
2018-04-22T04:16:46.861Z,21.80
2018-04-22T04:19:26.967Z,21.80
2018-04-22T04:22:07.137Z,21.80
2018-04-22T04:24:47.408Z,21.80
2018-04-22T04:27:37.209Z,21.80
2018-04-22T04:30:05.644Z,21.80
2018-04-22T04:32:33.925Z,21.80
2018-04-22T04:35:02.363Z,21.80
2018-04-22T04:37:31.419Z,21.80
2018-04-22T04:39:59.674Z,21.80
2018-04-22T04:42:28.465Z,21.80
2018-04-22T04:44:57.055Z,21.80
2018-04-22T04:47:25.313Z,21.80
2018-04-22T04:49:53.583Z,21.80
2018-04-22T04:52:22.008Z,21.80
2018-04-22T04:54:50.275Z,21.80
2018-04-22T04:57:18.529Z,21.80
2018-04-22T04:59:46.805Z,21.80
2018-04-22T05:02:15.073Z,21.80
2018-04-22T05:04:43.348Z,21.80
2018-04-22T05:07:12.082Z,21.80
2018-04-22T05:09:40.638Z,21.80
2018-04-22T05:12:09.029Z,21.80
2018-04-22T05:14:37.345Z,21.80
2018-04-22T05:17:05.777Z,21.80
2018-04-22T05:19:34.774Z,21.80
2018-04-22T05:22:03.173Z,21.80
2018-04-22T05:24:31.437Z,21.80
2018-04-22T05:26:59.931Z,21.80
2018-04-22T05:29:28.283Z,21.80
2018-04-22T05:31:56.973Z,21.80
2018-04-22T05:34:25.513Z,21.80
2018-04-22T05:36:53.996Z,21.80
2018-04-22T05:39:22.297Z,21.80
2018-04-22T05:41:50.872Z,21.80
2018-04-22T05:44:19.216Z,21.80
2018-04-22T05:46:47.491Z,21.80
2018-04-22T05:49:15.875Z,21.80
2018-04-22T05:51:44.321Z,21.80
2018-04-22T05:54:13.336Z,21.80
2018-04-22T05:56:41.697Z,21.80
2018-04-22T05:59:11.434Z,21.80
2018-04-22T06:01:41.089Z,21.80
2018-04-22T06:04:09.365Z,21.80
2018-04-22T06:06:37.658Z,21.80
2018-04-22T06:09:05.980Z,21.80
2018-04-22T06:11:34.246Z,21.80
2018-04-22T06:14:02.737Z,21.80
2018-04-22T06:16:31.470Z,21.80
2018-04-22T06:18:59.900Z,21.80
2018-04-22T06:21:28.828Z,21.80
2018-04-22T06:23:57.329Z,21.90
2018-04-22T06:26:25.635Z,21.90
2018-04-22T06:28:53.929Z,21.90
2018-04-22T06:31:22.339Z,22.00
2018-04-22T06:33:50.609Z,22.00
2018-04-22T06:36:18.889Z,22.10
2018-04-22T06:38:47.227Z,22.10
2018-04-22T06:41:15.544Z,22.20
2018-04-22T06:43:44.581Z,22.30
2018-04-22T06:46:12.898Z,22.20
2018-04-22T06:48:41.375Z,22.30
2018-04-22T06:51:09.672Z,22.30
2018-04-22T06:53:39.041Z,22.40
2018-04-22T06:56:08.083Z,22.40
2018-04-22T06:58:36.367Z,22.40
2018-04-22T07:01:04.678Z,22.30
2018-04-22T07:03:33.144Z,22.30
2018-04-22T07:06:01.447Z,22.30
2018-04-22T07:08:29.860Z,22.20
2018-04-22T07:10:58.309Z,22.20
2018-04-22T07:13:27.512Z,22.10
2018-04-22T07:15:55.962Z,22.10
2018-04-22T07:18:24.336Z,22.10
2018-04-22T07:20:52.757Z,22.10
2018-04-22T07:23:21.127Z,22.00
2018-04-22T07:25:49.450Z,22.10
2018-04-22T07:28:17.880Z,22.10
2018-04-22T07:30:46.213Z,22.00
2018-04-22T07:33:14.642Z,22.00
2018-04-22T07:35:43.014Z,22.00
2018-04-22T07:38:11.415Z,22.10
2018-04-22T07:40:39.735Z,22.10
2018-04-22T07:43:07.967Z,22.10
2018-04-22T07:45:36.264Z,22.10
2018-04-22T07:48:04.598Z,22.10
2018-04-22T07:50:32.912Z,22.10
2018-04-22T07:53:01.950Z,22.00
2018-04-22T07:55:30.258Z,22.00
2018-04-22T07:57:58.746Z,22.00
2018-04-22T08:00:27.097Z,22.00
2018-04-22T08:02:55.483Z,22.00
2018-04-22T08:05:23.750Z,22.00
2018-04-22T08:07:52.027Z,22.00
2018-04-22T08:10:20.343Z,22.00
2018-04-22T08:12:51.157Z,22.00
2018-04-22T08:15:21.276Z,22.00
2018-04-22T08:17:51.558Z,22.00
2018-04-22T08:20:24.291Z,22.00
2018-04-22T08:22:53.554Z,22.00
2018-04-22T08:25:21.991Z,22.00
2018-04-22T08:27:50.333Z,22.00
2018-04-22T08:30:18.741Z,22.10
2018-04-22T08:32:47.787Z,22.00
2018-04-22T08:35:16.330Z,22.00
2018-04-22T08:37:44.717Z,22.00
2018-04-22T08:40:13.790Z,22.10
2018-04-22T08:42:42.051Z,22.00
2018-04-22T08:45:10.377Z,22.00
2018-04-22T08:47:39.240Z,22.00
2018-04-22T08:50:08.477Z,22.00
2018-04-22T08:52:37.578Z,22.00
2018-04-22T08:55:06.272Z,22.10
2018-04-22T08:57:34.695Z,22.00
2018-04-22T09:00:02.945Z,22.10
2018-04-22T09:02:31.229Z,22.10
2018-04-22T09:04:59.661Z,22.10
2018-04-22T09:07:29.894Z,22.10
2018-04-22T09:09:58.314Z,22.10
2018-04-22T09:12:26.807Z,22.10
2018-04-22T09:14:55.265Z,22.10
2018-04-22T09:17:23.737Z,22.10
2018-04-22T09:19:52.011Z,22.10
2018-04-22T09:22:20.298Z,22.10
2018-04-22T09:24:48.598Z,22.10
2018-04-22T09:27:17.195Z,22.10
2018-04-22T09:29:45.474Z,22.10
2018-04-22T09:32:13.759Z,22.10
2018-04-22T09:34:42.086Z,22.10
2018-04-22T09:37:10.396Z,22.10
2018-04-22T09:39:38.847Z,22.10
2018-04-22T09:42:07.129Z,22.10
2018-04-22T09:44:35.395Z,22.10
2018-04-22T09:47:03.681Z,22.10
2018-04-22T09:49:31.989Z,22.10
2018-04-22T09:52:00.440Z,22.20
2018-04-22T09:54:28.828Z,22.20
2018-04-22T09:56:57.130Z,22.30
2018-04-22T09:59:25.761Z,22.40
2018-04-22T10:01:54.008Z,22.40
2018-04-22T10:04:27.944Z,22.50
2018-04-22T10:06:56.544Z,22.50
2018-04-22T10:09:24.930Z,22.50
2018-04-22T10:11:53.219Z,22.60
2018-04-22T10:14:21.683Z,22.70
2018-04-22T10:16:50.080Z,22.70
2018-04-22T10:19:18.572Z,22.80
2018-04-22T10:21:47.452Z,22.90
2018-04-22T10:24:15.785Z,22.90
2018-04-22T10:26:44.057Z,23.00
2018-04-22T10:29:12.567Z,23.10
2018-04-22T10:31:40.898Z,23.10
2018-04-22T10:34:09.601Z,23.10
2018-04-22T10:36:38.629Z,23.20
2018-04-22T10:39:06.903Z,23.20
2018-04-22T10:41:35.190Z,23.20
2018-04-22T10:44:03.505Z,23.30
2018-04-22T10:46:31.833Z,23.30
2018-04-22T10:49:00.094Z,23.30
2018-04-22T10:51:28.427Z,23.30
2018-04-22T10:53:56.760Z,23.30
2018-04-22T10:56:25.296Z,23.40
2018-04-22T10:58:53.572Z,23.40
2018-04-22T11:01:21.830Z,23.40
2018-04-22T11:03:50.166Z,23.40
2018-04-22T11:06:18.573Z,23.40
2018-04-22T11:08:46.881Z,23.40
2018-04-22T11:11:15.150Z,23.40
2018-04-22T11:13:43.530Z,23.40
2018-04-22T11:16:11.801Z,23.40
2018-04-22T11:18:40.119Z,23.40
2018-04-22T11:21:08.579Z,23.40
2018-04-22T11:23:37.211Z,23.40
2018-04-22T11:26:05.654Z,23.40
2018-04-22T11:28:33.932Z,23.30
2018-04-22T11:31:02.207Z,23.30
2018-04-22T11:33:30.678Z,23.30
2018-04-22T11:35:59.227Z,23.40
2018-04-22T11:38:28.024Z,23.40
2018-04-22T11:40:56.645Z,23.40
2018-04-22T11:43:25.309Z,23.40
2018-04-22T11:45:53.866Z,23.40
2018-04-22T11:48:22.152Z,23.40
2018-04-22T11:50:50.514Z,23.40
2018-04-22T11:53:19.014Z,23.40
2018-04-22T11:55:47.288Z,23.40
2018-04-22T11:58:15.550Z,23.40
2018-04-22T12:00:43.824Z,23.30
2018-04-22T12:03:12.224Z,23.30
2018-04-22T12:05:40.486Z,23.30
2018-04-22T12:08:08.862Z,23.30
2018-04-22T12:10:37.962Z,23.30
2018-04-22T12:13:06.337Z,23.30
2018-04-22T12:15:37.496Z,23.30
2018-04-22T12:18:05.853Z,23.30
2018-04-22T12:20:34.260Z,23.30
2018-04-22T12:23:02.579Z,23.20
2018-04-22T12:25:31.606Z,23.20
2018-04-22T12:27:59.931Z,23.20
2018-04-22T12:30:28.347Z,23.20
2018-04-22T12:32:56.612Z,23.20
2018-04-22T12:35:25.265Z,23.20
2018-04-22T12:37:53.575Z,23.20
2018-04-22T12:40:21.820Z,23.20
2018-04-22T12:42:50.221Z,23.20
2018-04-22T12:45:19.298Z,23.20
2018-04-22T12:47:48.436Z,23.20
2018-04-22T12:50:16.656Z,23.20
2018-04-22T12:52:44.916Z,23.20
2018-04-22T12:55:13.331Z,23.20
2018-04-22T12:57:41.771Z,23.20
2018-04-22T13:00:10.592Z,23.20
2018-04-22T13:02:38.920Z,23.20
2018-04-22T13:05:07.157Z,23.20
2018-04-22T13:07:35.631Z,23.20
2018-04-22T13:10:03.909Z,23.20
2018-04-22T13:12:32.202Z,23.20
2018-04-22T13:15:00.494Z,23.20
2018-04-22T13:17:28.805Z,23.20
2018-04-22T13:19:58.116Z,23.20
2018-04-22T13:22:26.374Z,23.20
2018-04-22T13:24:54.646Z,23.20
2018-04-22T13:27:22.955Z,23.30
2018-04-22T13:29:51.220Z,23.40
2018-04-22T13:32:19.718Z,23.50
2018-04-22T13:34:47.977Z,23.50
2018-04-22T13:37:16.517Z,23.50
2018-04-22T13:39:44.963Z,23.50
2018-04-22T13:42:13.330Z,23.60
2018-04-22T13:44:41.891Z,23.60
2018-04-22T13:47:10.210Z,23.60
2018-04-22T13:49:38.671Z,23.60
2018-04-22T13:52:07.167Z,23.60
2018-04-22T13:54:35.442Z,23.60
2018-04-22T13:57:03.740Z,23.60
2018-04-22T13:59:32.179Z,23.60
2018-04-22T14:02:00.494Z,23.60
2018-04-22T14:04:28.740Z,23.60
2018-04-22T14:06:56.994Z,23.60
2018-04-22T14:09:25.258Z,23.50
2018-04-22T14:11:53.535Z,23.50
2018-04-22T14:14:21.826Z,23.50
2018-04-22T14:16:50.239Z,23.50
2018-04-22T14:19:19.446Z,23.50
2018-04-22T14:21:47.740Z,23.50
2018-04-22T14:24:15.990Z,23.50
2018-04-22T14:26:44.473Z,23.50
2018-04-22T14:29:12.727Z,23.50
2018-04-22T14:31:41.398Z,23.50
2018-04-22T14:34:09.657Z,23.50
2018-04-22T14:36:38.030Z,23.50
2018-04-22T14:39:06.314Z,23.50
2018-04-22T14:41:34.577Z,23.50
2018-04-22T14:44:14.669Z,23.50
2018-04-22T14:46:42.943Z,23.50
2018-04-22T14:49:11.460Z,23.40
2018-04-22T14:51:39.806Z,23.40
2018-04-22T14:54:08.070Z,23.40
2018-04-22T14:56:36.341Z,23.40
2018-04-22T14:59:04.601Z,23.40
2018-04-22T15:01:32.949Z,23.40
2018-04-22T15:04:01.351Z,23.40
2018-04-22T15:06:30.379Z,23.40
2018-04-22T15:08:58.781Z,23.30
2018-04-22T15:11:27.280Z,23.40
2018-04-22T15:13:55.542Z,23.40
2018-04-22T15:16:23.841Z,23.40
2018-04-22T15:18:52.286Z,23.30
2018-04-22T15:21:20.940Z,23.40
2018-04-22T15:23:49.374Z,23.40
2018-04-22T15:26:17.673Z,23.30
2018-04-22T15:28:46.089Z,23.30
2018-04-22T15:31:14.475Z,23.30
2018-04-22T15:33:42.821Z,23.30
2018-04-22T15:36:11.383Z,23.30
2018-04-22T15:38:39.657Z,23.30
2018-04-22T15:41:08.103Z,23.30
2018-04-22T15:43:36.633Z,23.30
2018-04-22T15:46:04.894Z,23.30
2018-04-22T15:48:33.203Z,23.20
2018-04-22T15:51:02.441Z,23.20
2018-04-22T15:53:30.763Z,23.20
2018-04-22T15:55:59.453Z,23.30
2018-04-22T15:58:27.886Z,23.30
2018-04-22T16:00:56.313Z,23.40
2018-04-22T16:03:24.642Z,23.40
2018-04-22T16:05:53.049Z,23.40
2018-04-22T16:08:21.365Z,23.50
2018-04-22T16:10:50.088Z,23.50
2018-04-22T16:13:18.483Z,23.60
2018-04-22T16:15:46.837Z,23.50
2018-04-22T16:18:15.102Z,23.50
2018-04-22T16:20:43.367Z,23.50
2018-04-22T16:23:11.646Z,23.50
2018-04-22T16:25:40.055Z,23.50
2018-04-22T16:28:08.671Z,23.40
2018-04-22T16:30:37.442Z,23.40
2018-04-22T16:33:06.037Z,23.40
2018-04-22T16:35:34.446Z,23.40
2018-04-22T16:38:02.722Z,23.40
2018-04-22T16:40:31.242Z,23.40
2018-04-22T16:42:59.535Z,23.30
2018-04-22T16:45:28.613Z,23.30
2018-04-22T16:47:56.947Z,23.30
2018-04-22T16:50:25.596Z,23.30
2018-04-22T16:52:54.020Z,23.30
2018-04-22T16:55:22.430Z,23.30
2018-04-22T16:57:51.467Z,23.30
2018-04-22T17:00:19.783Z,23.20
2018-04-22T17:02:48.195Z,23.30
2018-04-22T17:05:16.616Z,23.30
2018-04-22T17:07:44.877Z,23.20
2018-04-22T17:10:13.352Z,23.20
2018-04-22T17:12:41.614Z,23.20
2018-04-22T17:15:09.910Z,23.20
2018-04-22T17:17:38.185Z,23.20
2018-04-22T17:20:06.481Z,23.20
2018-04-22T17:22:34.758Z,23.20
2018-04-22T17:25:03.252Z,23.20
2018-04-22T17:27:32.302Z,23.10
2018-04-22T17:30:00.651Z,23.20
2018-04-22T17:32:29.092Z,23.10
2018-04-22T17:34:57.468Z,23.10
2018-04-22T17:37:26.508Z,23.10
2018-04-22T17:39:54.762Z,23.10
2018-04-22T17:42:23.787Z,23.20
2018-04-22T17:44:52.496Z,23.20
2018-04-22T17:47:20.906Z,23.20
2018-04-22T17:49:50.102Z,23.30
2018-04-22T17:52:18.374Z,23.30
2018-04-22T17:54:46.620Z,23.30
2018-04-22T17:57:15.019Z,23.30
2018-04-22T17:59:43.304Z,23.30
2018-04-22T18:02:11.787Z,23.30
2018-04-22T18:04:40.081Z,23.30
2018-04-22T18:07:08.605Z,23.40
2018-04-22T18:09:37.198Z,23.40
2018-04-22T18:12:05.590Z,23.40
2018-04-22T18:14:33.866Z,23.40
2018-04-22T18:17:02.137Z,23.40
2018-04-22T18:19:30.406Z,23.40
2018-04-22T18:21:58.731Z,23.40
2018-04-22T18:24:27.766Z,23.40
2018-04-22T18:26:56.035Z,23.40
2018-04-22T18:29:24.306Z,23.40
2018-04-22T18:31:52.612Z,23.30
2018-04-22T18:34:21.013Z,23.30
2018-04-22T18:36:49.369Z,23.30
2018-04-22T18:39:17.761Z,23.30
2018-04-22T18:41:46.155Z,23.20
2018-04-22T18:44:14.443Z,23.20
2018-04-22T18:46:42.735Z,23.20
2018-04-22T18:49:10.986Z,23.20
2018-04-22T18:51:40.208Z,23.20
2018-04-22T18:54:08.684Z,23.20
2018-04-22T18:56:37.943Z,23.10
2018-04-22T18:59:06.347Z,23.10
2018-04-22T19:01:34.605Z,23.10
2018-04-22T19:04:03.085Z,23.10
2018-04-22T19:06:31.403Z,23.10
2018-04-22T19:08:59.826Z,23.10
2018-04-22T19:11:28.213Z,23.10
2018-04-22T19:13:56.506Z,23.00
2018-04-22T19:16:24.805Z,23.10
2018-04-22T19:18:53.350Z,23.00
2018-04-22T19:21:21.668Z,23.00
2018-04-22T19:23:50.136Z,23.00
2018-04-22T19:26:18.491Z,23.00
2018-04-22T19:28:46.913Z,23.00
2018-04-22T19:31:15.187Z,23.00
2018-04-22T19:33:44.239Z,23.10
2018-04-22T19:36:12.601Z,23.10
2018-04-22T19:38:41.276Z,23.10
2018-04-22T19:41:09.719Z,23.10
2018-04-22T19:43:38.016Z,23.10
2018-04-22T19:46:07.060Z,23.10
2018-04-22T19:48:35.383Z,23.10
2018-04-22T19:51:03.861Z,23.10
2018-04-22T19:53:32.190Z,23.10
2018-04-22T19:56:00.475Z,23.10
2018-04-22T19:58:28.753Z,23.10
2018-04-22T20:00:57.040Z,23.10
2018-04-22T20:03:25.369Z,23.00
2018-04-22T20:05:54.025Z,23.00
2018-04-22T20:08:22.414Z,23.00
2018-04-22T20:10:51.151Z,23.00
2018-04-22T20:13:19.530Z,23.00
2018-04-22T20:15:48.049Z,23.00
2018-04-22T20:18:16.307Z,23.00
2018-04-22T20:20:44.585Z,23.00
2018-04-22T20:23:13.070Z,22.90
2018-04-22T20:25:41.355Z,22.90
2018-04-22T20:28:09.786Z,22.90
2018-04-22T20:30:38.201Z,22.90
2018-04-22T20:33:06.875Z,22.90
2018-04-22T20:35:35.313Z,22.90
2018-04-22T20:38:03.575Z,22.90
2018-04-22T20:40:32.617Z,22.90
2018-04-22T20:43:01.005Z,22.90
2018-04-22T20:45:29.365Z,22.90
2018-04-22T20:47:57.635Z,22.90
2018-04-22T20:50:25.937Z,22.90
2018-04-22T20:52:54.352Z,22.80
2018-04-22T20:55:22.619Z,22.80
2018-04-22T20:57:50.894Z,22.80
2018-04-22T21:00:19.397Z,22.80
2018-04-22T21:02:47.731Z,22.80
2018-04-22T21:05:16.113Z,22.80
2018-04-22T21:07:44.492Z,22.80
2018-04-22T21:10:12.815Z,22.80
2018-04-22T21:12:41.874Z,22.80
2018-04-22T21:15:10.243Z,22.80
2018-04-22T21:17:38.575Z,22.80
2018-04-22T21:20:07.609Z,22.80
2018-04-22T21:22:36.016Z,22.80
2018-04-22T21:25:04.324Z,22.80
2018-04-22T21:27:33.353Z,22.90
2018-04-22T21:30:01.702Z,22.80
2018-04-22T21:32:30.756Z,22.90
2018-04-22T21:34:59.025Z,22.90
2018-04-22T21:37:27.287Z,22.90
2018-04-22T21:39:55.868Z,22.90
2018-04-22T21:42:24.254Z,22.90
2018-04-22T21:44:52.770Z,22.90
2018-04-22T21:47:21.063Z,22.90
2018-04-22T21:49:49.335Z,22.80
2018-04-22T21:52:17.596Z,22.80
2018-04-22T21:54:45.871Z,22.80
2018-04-22T21:57:14.233Z,22.80
2018-04-22T21:59:42.526Z,22.70
2018-04-22T22:02:10.786Z,22.70
2018-04-22T22:04:39.316Z,22.70
2018-04-22T22:07:08.370Z,22.70
2018-04-22T22:09:36.675Z,22.70
2018-04-22T22:12:05.183Z,22.70
2018-04-22T22:14:34.414Z,22.70
2018-04-22T22:17:02.694Z,22.70
2018-04-22T22:19:30.950Z,22.70
2018-04-22T22:21:59.354Z,22.70
2018-04-22T22:24:27.646Z,22.60
2018-04-22T22:26:55.949Z,22.60
2018-04-22T22:29:24.990Z,22.60
2018-04-22T22:31:54.083Z,22.60
2018-04-22T22:34:22.381Z,22.60
2018-04-22T22:36:50.702Z,22.60
2018-04-22T22:39:20.183Z,22.60
2018-04-22T22:41:48.733Z,22.60
2018-04-22T22:44:17.052Z,22.60
2018-04-22T22:46:46.203Z,22.60
2018-04-22T22:49:14.529Z,22.60
2018-04-22T22:51:42.955Z,22.60
2018-04-22T22:54:11.576Z,22.60
2018-04-22T22:56:39.930Z,22.60
2018-04-22T22:59:08.195Z,22.60
2018-04-22T23:01:36.677Z,22.60
2018-04-22T23:04:05.059Z,22.60
2018-04-22T23:06:33.439Z,22.60
2018-04-22T23:09:01.859Z,22.60
2018-04-22T23:11:30.892Z,22.50
2018-04-22T23:13:59.208Z,22.50
2018-04-22T23:16:27.509Z,22.50
2018-04-22T23:18:55.969Z,22.50
2018-04-22T23:21:24.290Z,22.50
2018-04-22T23:23:53.321Z,22.50
2018-04-22T23:26:21.652Z,22.50
2018-04-22T23:28:50.688Z,22.50
2018-04-22T23:31:19.067Z,22.50
2018-04-22T23:33:47.550Z,22.50
2018-04-22T23:36:15.812Z,22.50
2018-04-22T23:38:44.250Z,22.50
2018-04-22T23:41:12.544Z,22.50
2018-04-22T23:43:40.918Z,22.50
2018-04-22T23:46:09.183Z,22.50
2018-04-22T23:48:37.445Z,22.50
2018-04-22T23:51:05.810Z,22.50
2018-04-22T23:53:34.451Z,22.50
2018-04-22T23:56:03.478Z,22.50
2018-04-22T23:58:31.875Z,22.50
